Latest Weather Observations for Ernabella/Pukatja

IDS60801

Issued at 2:31 pm CST Thursday 27 April 2017 (issued every 30 minutes, with the page automatically refreshed every 10 minutes)

About weather observations | Map of weather stations | Latest weather observations for SA | Other Formats
Station Details ID: 016097 Name: PUKATJA Lat: -26.26 Lon: 132.18 Height: 703.2 m
Data from the previous 72 hours. | See also: Recent months at Ernabella/Pukatja
Date/Time
CST
Temp
°C
App
Temp
°C
Dew
Point
°C
Rel
Hum
%
Delta-T
°C
Wind Press
QNH
hPa
Press
MSL
hPa
Rain since
9am
mm
Dir  Spd
km/h
Gust
km/h
Spd
kts
Gust
kts
27/02:30pm 17.1 11.7 2.7 38 6.8 ESE 20 28 11 15 1025.7 1022.7 0.0
27/02:00pm 16.7 11.5 2.3 38 6.7 SE 19 28 10 15 1026.1 1023.0 0.0
27/01:30pm 16.7 11.5 3.4 41 6.3 ESE 20 30 11 16 1026.2 1023.1 0.0
27/01:00pm 16.9 11.3 3.2 40 6.5 ESE 22 32 12 17 1026.4 1023.4 0.0
27/12:30pm 15.6 10.5 4.0 46 5.5 ESE 20 30 11 16 1026.9 1023.9 0.0
27/12:00pm 15.3 9.8 4.1 47 5.4 ESE 22 30 12 16 1027.4 1024.4 0.0
27/11:30am 15.0 10.0 4.7 50 5.0 ESE 20 28 11 15 1028.0 1025.0 0.0
27/11:00am 15.0 9.7 5.0 51 4.9 ESE 22 32 12 17 1028.3 1025.3 0.0
27/10:30am 13.9 8.2 4.8 54 4.4 ESE 24 32 13 17 1028.4 1025.4 0.0
27/10:00am 13.9 8.6 4.8 54 4.4 ESE 22 30 12 16 1028.6 1025.6 0.0
27/09:30am 13.4 8.2 5.3 58 3.9 ESE 22 28 12 15 1028.4 1025.4 0.0
27/09:00am 12.4 7.6 4.9 60 3.6 ESE 19 28 10 15 1028.2 1025.2 0.0
27/08:30am 11.2 7.6 4.9 65 3.0 SE 13 19 7 10 1027.9 1024.9 0.0
27/08:00am 9.4 6.6 5.0 74 2.1 ESE 9 15 5 8 1027.4 1024.4 0.0
27/07:30am 8.7 6.4 4.7 76 1.8 ENE 6 7 3 4 1027.1 1024.1 0.0
27/07:00am 8.4 5.5 4.6 77 1.7 SE 9 17 5 9 1027.1 1024.1 0.0
27/06:30am 9.1 5.8 4.7 74 2.0 SE 11 17 6 9 1026.8 1023.8 0.0
27/06:00am 9.4 6.1 4.6 72 2.2 SE 11 15 6 8 1026.4 1023.4 0.0
27/05:30am 9.4 6.1 4.8 73 2.1 SE 11 17 6 9 1026.4 1023.4 0.0
27/05:00am 9.1 6.2 4.5 73 2.1 SE 9 11 5 6 1026.3 1023.2 0.0
27/04:30am 9.7 6.1 4.9 72 2.2 SE 13 17 7 9 1026.2 1023.1 0.0
27/04:00am 10.0 6.7 4.6 69 2.5 SE 11 17 6 9 1026.3 1023.2 0.0
27/03:30am 10.2 6.5 4.4 67 2.7 SE 13 19 7 10 1026.5 1023.5 0.0
27/03:00am 10.9 6.4 4.1 63 3.1 ESE 17 24 9 13 1026.6 1023.6 0.0
27/02:30am 10.9 6.4 4.1 63 3.1 SE 17 24 9 13 1026.9 1023.9 0.0
27/02:00am 11.2 6.7 4.0 61 3.3 SE 17 26 9 14 1027.0 1024.0 0.0
27/01:30am 11.0 6.5 4.2 63 3.1 SE 17 22 9 12 1027.2 1024.2 0.0
27/01:00am 11.2 7.0 4.0 61 3.3 SE 15 22 8 12 1027.4 1024.4 0.0
27/12:30am 11.2 7.0 4.0 61 3.3 SE 15 22 8 12 1027.2 1024.2 0.0
27/12:00am 11.5 7.7 4.0 60 3.5 SE 13 20 7 11 1027.1 1024.1 0.0
 
Date/Time
CST
Temp
°C
App
Temp
°C
Dew
Point
°C
Rel
Hum
%
Delta-T
°C
Wind Press
QNH
hPa
Press
MSL
hPa
Rain since
9am
mm
Dir  Spd
km/h
Gust
km/h
Spd
kts
Gust
kts
26/11:30pm 11.4 7.6 3.9 60 3.5 ESE 13 24 7 13 1027.1 1024.1 0.0
26/11:00pm 11.6 8.1 3.4 57 3.8 SE 11 17 6 9 1027.6 1024.5 0.0
26/10:30pm 12.7 8.4 3.1 52 4.4 SE 15 20 8 11 1027.2 1024.2 0.0
26/10:00pm 13.0 8.3 3.1 51 4.6 SSE 17 24 9 13 1027.1 1024.1 0.0
26/09:30pm 13.2 8.9 3.3 51 4.6 SSE 15 19 8 10 1026.8 1023.8 0.0
26/09:00pm 13.3 9.6 4.5 55 4.2 SE 13 15 7 8 1026.4 1023.4 0.0
26/08:30pm 13.8 10.6 4.9 55 4.3 SE 11 20 6 11 1026.1 1023.0 0.0
26/08:00pm 13.9 10.8 5.5 57 4.1 SSE 11 13 6 7 1025.4 1022.4 0.0
26/07:30pm 14.6 11.5 5.4 54 4.5 SSE 11 19 6 10 1024.9 1021.8 0.0
26/07:00pm 14.8 11.3 5.3 53 4.7 SSE 13 20 7 11 1024.4 1021.4 0.0
26/06:30pm 15.6 11.4 5.8 52 4.9 SSE 17 24 9 13 1023.9 1020.9 0.0
26/06:00pm 16.3 11.8 5.9 50 5.2 S 19 28 10 15 1023.7 1020.6 0.0
26/05:30pm 17.1 12.6 6.0 48 5.6 SSE 19 24 10 13 1023.6 1020.5 0.0
26/05:00pm 18.0 13.5 6.2 46 6.0 SE 19 28 10 15 1023.6 1020.5 0.0
26/04:30pm 18.4 13.4 6.6 46 6.1 S 22 30 12 16 1023.4 1020.3 0.0
26/04:00pm 19.1 13.6 5.9 42 6.8 S 24 35 13 19 1023.3 1020.2 0.0
26/03:30pm 18.9 13.9 6.4 44 6.4 SSE 22 35 12 19 1023.1 1020.0 0.0
26/03:00pm 19.2 13.7 6.0 42 6.7 SSE 24 35 13 19 1023.1 1020.0 0.0
26/02:30pm 18.7 13.0 4.8 40 6.9 S 24 35 13 19 1023.3 1020.2 0.0
26/02:00pm 19.6 13.7 4.1 36 7.7 SSE 24 35 13 19 1023.6 1020.5 0.0
26/01:30pm 18.9 13.5 4.7 39 7.1 S 22 33 12 18 1024.0 1021.0 0.0
26/01:00pm 19.0 14.7 7.8 48 5.9 S 20 37 11 20 1024.2 1021.2 0.0
26/12:30pm 18.3 12.8 7.7 50 5.6 SSW 26 39 14 21 1024.6 1021.5 0.0
26/12:00pm 17.9 12.6 8.5 54 5.0 SSE 26 35 14 19 1024.9 1021.8 0.0
26/11:30am 17.5 12.6 8.6 56 4.7 S 24 33 13 18 1025.1 1022.1 0.0
26/11:00am 16.3 12.2 8.8 61 4.0 SSW 20 35 11 19 1025.6 1022.6 0.0
26/10:30am 16.6 12.6 9.1 61 4.0 S 20 28 11 15 1025.9 1022.9 0.0
26/10:00am 15.5 11.7 9.0 65 3.5 SSW 19 28 10 15 1026.1 1023.0 0.0
26/09:30am 14.3 10.8 8.9 70 2.8 SSW 17 30 9 16 1026.3 1023.2 0.0
26/09:00am 13.6 9.6 8.9 73 2.5 SSW 20 30 11 16 1025.9 1022.9 0.0
26/08:30am 12.8 8.3 8.7 76 2.1 S 22 30 12 16 1025.7 1022.7 0.0
26/08:00am 11.9 7.7 8.2 78 1.9 SSW 20 30 11 16 1025.3 1022.3 0.0
26/07:30am 11.5 7.5 8.2 80 1.7 SSW 19 26 10 14 1025.1 1022.1 0.0
26/07:00am 11.5 8.3 8.4 81 1.6 SSW 15 26 8 14 1025.0 1021.9 0.0
26/06:30am 11.6 8.0 8.3 80 1.7 SSW 17 24 9 13 1024.9 1021.8 0.0
26/06:00am 12.7 7.6 7.6 71 2.6 S 24 35 13 19 1024.4 1021.4 0.0
26/05:30am 12.8 8.8 6.6 66 3.1 S 17 22 9 12 1024.1 1021.1 0.0
26/05:00am 12.9 9.2 7.8 71 2.6 SSW 17 24 9 13 1024.0 1021.0 0.0
26/04:30am 12.7 8.9 7.6 71 2.6 SSW 17 22 9 12 1024.1 1021.1 0.0
26/04:00am 12.7 9.7 7.6 71 2.6 SSW 13 20 7 11 1024.1 1021.1 0.0
26/03:30am 12.5 9.6 8.0 74 2.3 SSW 13 17 7 9 1024.4 1021.4 0.0
26/03:00am 13.1 9.4 8.0 71 2.6 S 17 20 9 11 1024.4 1021.4 0.0
26/02:30am 13.2 9.6 8.3 72 2.5 S 17 24 9 13 1024.3 1021.3 0.0
26/02:00am 13.4 9.6 8.9 74 2.4 S 19 26 10 14 1024.4 1021.4 0.0
26/01:30am 13.3 10.0 9.7 79 1.9 SSE 17 24 9 13 1024.3 1021.3 0.0
26/01:00am 13.4 10.3 10.2 81 1.7 SSE 17 24 9 13 1024.7 1021.6 0.0
26/12:30am 13.4 10.3 10.4 82 1.6 SSE 17 22 9 12 1024.7 1021.6 0.0
26/12:00am 13.7 10.3 10.5 81 1.7 SSE 19 24 10 13 1024.4 1021.4 0.0
 
Date/Time
CST
Temp
°C
App
Temp
°C
Dew
Point
°C
Rel
Hum
%
Delta-T
°C
Wind Press
QNH
hPa
Press
MSL
hPa
Rain since
9am
mm
Dir  Spd
km/h
Gust
km/h
Spd
kts
Gust
kts
25/11:30pm 14.1 9.7 10.3 78 2.0 SSE 24 33 13 18 1024.4 1021.4 0.0
25/11:00pm 14.4 10.4 10.4 77 2.2 SSE 22 30 12 16 1024.4 1021.4 0.0
25/10:30pm 14.8 10.0 10.2 74 2.5 SSE 26 37 14 20 1024.2 1021.2 0.0
25/10:00pm 15.3 11.2 10.1 71 2.8 SSE 22 35 12 19 1024.0 1021.0 0.0
25/09:30pm 15.6 12.3 9.7 68 3.2 S 17 26 9 14 1024.0 1021.0 0.0
25/09:00pm 16.0 12.3 9.4 65 3.5 S 19 28 10 15 1023.5 1020.4 0.0
25/08:30pm 16.4 12.3 10.0 66 3.5 S 22 35 12 19 1023.1 1020.0 0.0
25/08:00pm 16.6 13.0 9.8 64 3.7 S 19 30 10 16 1022.5 1019.5 0.0
25/07:30pm 16.9 13.2 10.1 64 3.7 S 20 32 11 17 1021.9 1018.8 0.0
25/07:00pm 17.5 12.6 10.1 62 4.1 S 26 39 14 21 1021.7 1018.6 0.0
25/06:30pm 18.2 15.0 9.8 58 4.6 S 17 26 9 14 1021.0 1017.9 0.0
25/06:00pm 18.8 14.9 9.3 54 5.2 SSW 20 32 11 17 1020.8 1017.7 0.0
25/05:30pm 19.1 15.4 9.6 54 5.2 S 19 32 10 17 1020.3 1017.2 0.0
25/05:00pm 20.0 15.7 10.7 55 5.2 S 24 33 13 18 1019.7 1016.6 0.0
25/04:30pm 20.9 16.8 10.1 50 6.0 SSW 22 33 12 18 1019.4 1016.3 0.0
25/04:00pm 21.3 16.6 10.8 51 6.0 S 26 33 14 18 1019.0 1015.9 0.0
25/03:30pm 22.0 18.4 10.5 48 6.5 SSW 20 28 11 15 1018.9 1015.8 0.0
25/03:00pm 22.5 18.5 10.6 47 6.8 S 22 32 12 17 1019.0 1015.9 0.0
25/02:30pm 22.2 18.7 11.0 49 6.4 S 20 30 11 16 1019.0 1015.9 0.0
25/02:00pm 21.9 18.7 11.3 51 6.1 S 19 26 10 14 1019.3 1016.2 0.0
25/01:30pm 21.8 18.4 11.2 51 6.1 S 20 26 11 14 1019.4 1016.3 0.0
25/01:00pm 20.4 17.2 11.1 55 5.3 S 19 30 10 16 1020.2 1017.1 0.0
25/12:30pm 20.6 18.3 11.8 57 5.0 S 15 24 8 13 1020.9 1017.8 0.0
25/12:00pm 19.2 16.5 11.7 62 4.3 S 17 22 9 12 1021.5 1018.4 0.0
25/11:30am 18.9 17.0 11.7 63 4.1 S 13 20 7 11 1021.7 1018.6 0.0
25/11:00am 17.6 15.3 11.6 68 3.4 SE 15 20 8 11 1021.7 1018.6 0.0
25/10:30am 17.0 14.4 12.1 73 2.8 S 17 22 9 12 1021.9 1018.8 0.0
25/10:00am 16.5 13.8 11.6 73 2.8 S 17 24 9 13 1021.8 1018.7 0.0
25/09:30am 16.1 14.0 12.5 79 2.0 SSE 15 20 8 11 1021.9 1018.8 0.0
25/09:00am 15.7 14.0 12.3 80 1.9 S 13 17 7 9 1022.0 1018.9 0.2
25/08:30am 15.5 13.0 12.3 81 1.8 SSE 17 22 9 12 1021.3 1018.3 0.2
25/08:00am 15.4 12.9 12.3 82 1.8 SSE 17 20 9 11 1020.9 1017.8 0.2
25/07:30am 15.5 13.8 12.6 83 1.6 S 13 17 7 9 1020.7 1017.6 0.2
25/07:00am 15.1 13.9 12.8 86 1.3 S 11 13 6 7 1020.4 1017.3 0.2
25/06:30am 15.1 14.0 13.1 88 1.1 S 11 17 6 9 1020.0 1016.8 0.2
25/06:00am 14.9 14.1 12.9 88 1.1 SSE 9 13 5 7 1019.7 1016.6 0.2
25/05:30am 15.2 13.7 13.2 88 1.1 S 13 19 7 10 1019.5 1016.4 0.2
25/05:00am 15.2 13.9 13.6 90 0.9 S 13 17 7 9 1019.3 1016.2 0.2
25/04:30am 15.7 13.7 13.9 89 1.0 S 17 20 9 11 1019.1 1016.0 0.2
25/04:00am 15.9 14.2 13.7 87 1.3 S 15 24 8 13 1018.9 1015.8 0.2
25/03:30am 16.1 14.8 13.6 85 1.5 SSW 13 19 7 10 1018.6 1015.4 0.2
25/03:00am 16.6 15.1 14.1 85 1.5 S 15 20 8 11 1018.5 1015.3 0.2
25/02:30am 16.6 14.7 14.2 86 1.4 S 17 22 9 12 1018.6 1015.4 0.2
25/02:00am 16.6 14.9 14.6 88 1.2 S 17 24 9 13 1018.9 1015.8 0.2
25/01:30am 16.7 15.2 14.3 86 1.4 S 15 24 8 13 1019.2 1016.1 0.2
25/01:00am 16.7 14.4 14.2 85 1.5 S 19 24 10 13 1019.2 1016.1 0.2
25/12:30am 17.3 14.5 14.4 83 1.7 S 22 30 12 16 1019.3 1016.2 0.2
25/12:00am 17.5 15.8 14.8 84 1.6 S 17 20 9 11 1019.5 1016.4 0.2
 
Date/Time
CST
Temp
°C
App
Temp
°C
Dew
Point
°C
Rel
Hum
%
Delta-T
°C
Wind Press
QNH
hPa
Press
MSL
hPa
Rain since
9am
mm
Dir  Spd
km/h
Gust
km/h
Spd
kts
Gust
kts
24/11:30pm 17.8 16.2 14.9 83 1.7 S 17 28 9 15 1019.4 1016.3 0.2
24/11:00pm 17.9 15.8 14.6 81 2.0 S 19 30 10 16 1019.6 1016.5 0.2
24/10:30pm 18.0 17.0 14.7 81 2.0 SSW 13 20 7 11 1019.8 1016.7 0.2
24/10:00pm 17.9 17.8 15.0 83 1.7 SSW 9 17 5 9 1019.7 1016.6 0.2
24/09:30pm 18.4 18.6 14.7 79 2.2 S 7 13 4 7 1019.6 1016.5 0.2
24/09:00pm 18.8 17.8 14.7 77 2.5 S 13 20 7 11 1019.2 1016.1 0.2
24/08:30pm 19.1 18.2 14.8 76 2.6 SSW 13 20 7 11 1019.2 1016.1 0.2
24/08:00pm 19.5 17.4 15.2 76 2.6 S 20 30 11 16 1018.9 1015.8 0.2
24/07:30pm 20.1 16.2 15.5 75 2.8 SSW 30 43 16 23 1018.6 1015.4 0.2
24/07:00pm 21.2 16.3 15.3 69 3.6 S 35 48 19 26 1018.0 1014.9 0.2
24/06:30pm 22.0 18.3 14.9 64 4.3 S 28 43 15 23 1017.5 1014.4 0.2
24/06:00pm 23.0 19.6 14.8 60 5.0 SSW 26 41 14 22 1017.1 1013.9 0.2
24/05:30pm 24.4 19.8 14.5 54 6.1 SW 32 41 17 22 1016.6 1013.5 0.2
24/05:00pm 25.1 20.8 15.4 55 6.0 SW 32 46 17 25 1016.1 1012.9 0.2
24/04:30pm 26.2 22.5 15.0 50 6.9 SSW 28 46 15 25 1015.6 1012.4 0.2
24/04:00pm 27.2 23.0 13.5 42 8.3 SW 28 37 15 20 1015.4 1012.2 0.2
24/03:30pm 27.4 23.4 14.1 44 8.2 SW 28 37 15 20 1015.1 1012.0 0.2
24/03:00pm 27.4 23.5 14.4 45 8.0 SW 28 41 15 22 1015.1 1012.0 0.2

Other Formats:

Comma delimited format used in spreadsheet applications
http://www.bom.gov.au/fwo/IDS60801/IDS60801.94474.axf

JavaScript Object Notation format (JSON) in row-major order
http://www.bom.gov.au/fwo/IDS60801/IDS60801.94474.json